ENBL/FDE METAR and TAF weather

Enter ICAO airport designator
Station Type Date Time Source
ENBL METAR 2021/04/17 13:50 UTC NOAA

ENBL 171350Z VRB05KT CAVOK 12/M03 Q1031


Station Type Date Time Source
ENBL Decoded METAR 2021/04/17 13:50 UTC NOAA

Forde / Bringeland, Norway (ENBL) 61-27N 005-52E
Apr 17, 2021 - 09:50 AM EDT / 2021.04.17 1350 UTC
Wind: Variable at 6 MPH (5 KT):0
Visibility: greater than 7 mile(s):0
Temperature: 53 F (12 C)
Dew Point: 26 F (-3 C)
Relative Humidity: 34%
Pressure (altimeter): 30.45 in. Hg (1031 hPa)
ob: ENBL 171350Z VRB05KT CAVOK 12/M03 Q1031
cycle: 14

Station Type Date Time Source
ENBL TAF UTC NOAA

Error!

Example: see airport list